createdAt,value
2022-10-05T00:00:19.381Z,100111.22
2022-10-05T00:02:47.573Z,100130.56
2022-10-05T00:05:22.592Z,100121.66
2022-10-05T00:07:50.392Z,99981.72
2022-10-05T00:10:19.431Z,100026.81
2022-10-05T00:12:47.705Z,100080.03
2022-10-05T00:15:16.822Z,99995.53
2022-10-05T00:17:47.914Z,100080.47
2022-10-05T00:20:21.483Z,100054.25
2022-10-05T00:22:49.641Z,100017.03
2022-10-05T00:25:19.198Z,100051.91
2022-10-05T00:27:47.681Z,100104.94
2022-10-05T00:30:16.730Z,100065.50
2022-10-05T00:32:47.084Z,100080.50
2022-10-05T00:35:15.942Z,100037.38
2022-10-05T00:37:43.643Z,100033.63
2022-10-05T00:40:20.045Z,100055.69
2022-10-05T00:42:51.333Z,100082.31
2022-10-05T00:45:24.854Z,100077.13
2022-10-05T00:47:57.887Z,100067.91
2022-10-05T00:50:49.166Z,100001.53
2022-10-05T00:53:24.484Z,100067.84
2022-10-05T00:55:58.114Z,100041.78
2022-10-05T00:58:30.772Z,100005.09
2022-10-05T01:01:03.948Z,100097.56
2022-10-05T01:03:36.073Z,99872.19
2022-10-05T01:06:09.204Z,100075.09
2022-10-05T01:08:42.523Z,100044.81
2022-10-05T01:11:12.949Z,100071.53
2022-10-05T01:13:48.328Z,100085.47
2022-10-05T01:16:18.028Z,99933.66
2022-10-05T01:18:51.509Z,99952.66
2022-10-05T01:21:20.957Z,100045.59
2022-10-05T01:24:17.941Z,100075.44
2022-10-05T01:27:50.091Z,100057.41
2022-10-05T01:30:21.152Z,100054.09
2022-10-05T01:32:51.341Z,100045.91
2022-10-05T01:35:35.396Z,100069.94
2022-10-05T01:38:10.791Z,100062.19
2022-10-05T01:40:41.057Z,100056.16
2022-10-05T01:43:12.934Z,100061.66
2022-10-05T01:45:49.303Z,100011.06
2022-10-05T01:48:19.764Z,99987.66
2022-10-05T01:50:52.140Z,100025.94
2022-10-05T01:53:24.785Z,99983.66
2022-10-05T01:55:56.024Z,99994.25
2022-10-05T01:58:26.312Z,99980.03
2022-10-05T02:01:01.465Z,99937.34
2022-10-05T02:03:31.857Z,100022.59
2022-10-05T02:06:00.727Z,100021.66
2022-10-05T02:08:32.228Z,100067.31
2022-10-05T02:14:50.864Z,99914.00
2022-10-05T02:17:22.434Z,99958.81
2022-10-05T02:19:51.556Z,99983.38
2022-10-05T02:22:22.942Z,100031.19
2022-10-05T02:24:54.269Z,100030.28
2022-10-05T02:27:38.109Z,99725.03
2022-10-05T02:30:11.677Z,99804.09
2022-10-05T02:32:52.122Z,99969.75
2022-10-05T02:35:20.776Z,99969.75
2022-10-05T02:37:57.311Z,100084.84
2022-10-05T02:40:30.179Z,100068.94
2022-10-05T02:43:02.165Z,100060.06
2022-10-05T02:45:36.725Z,99676.25
2022-10-05T02:48:12.051Z,99822.84
2022-10-05T02:50:44.662Z,100002.88
2022-10-05T02:53:30.430Z,100027.25
2022-10-05T02:56:16.788Z,100014.19
2022-10-05T02:58:47.121Z,99967.94
2022-10-05T03:01:18.238Z,99949.00
2022-10-05T03:03:50.509Z,99998.47
2022-10-05T03:06:21.097Z,99940.75
2022-10-05T03:08:52.230Z,99993.31
2022-10-05T03:11:23.960Z,99995.75
2022-10-05T03:13:54.199Z,99970.88
2022-10-05T03:16:31.245Z,100006.56
2022-10-05T03:19:06.421Z,99998.63
2022-10-05T03:21:47.896Z,99945.84
2022-10-05T03:24:25.947Z,99990.75
2022-10-05T03:26:55.815Z,99987.91
2022-10-05T03:29:28.424Z,99672.56
2022-10-05T03:31:59.552Z,99990.84
2022-10-05T03:34:31.141Z,100007.78
2022-10-05T03:37:03.178Z,99929.00
2022-10-05T03:39:33.118Z,99936.72
2022-10-05T03:42:05.209Z,99889.97
2022-10-05T03:44:45.778Z,99967.03
2022-10-05T03:47:30.514Z,99677.06
2022-10-05T03:50:31.843Z,99968.84
2022-10-05T03:53:01.967Z,99968.13
2022-10-05T03:55:34.210Z,99974.97
2022-10-05T03:58:07.765Z,99917.44
2022-10-05T04:00:36.015Z,99904.19
2022-10-05T04:03:06.751Z,99954.75
2022-10-05T04:05:38.111Z,99994.81
2022-10-05T04:08:07.417Z,99963.13
2022-10-05T04:10:42.869Z,99874.59
2022-10-05T04:13:13.412Z,100008.09
2022-10-05T04:16:06.628Z,99949.16
2022-10-05T04:18:35.947Z,99966.00
2022-10-05T04:21:06.866Z,99756.13
2022-10-05T04:23:45.785Z,99888.78
2022-10-05T04:26:15.262Z,99963.06
2022-10-05T04:28:47.415Z,99999.88
2022-10-05T04:31:18.540Z,99600.47
2022-10-05T04:33:48.247Z,99951.94
2022-10-05T04:36:22.131Z,99950.16
2022-10-05T04:38:55.867Z,99838.84
2022-10-05T04:41:48.930Z,100001.09
2022-10-05T04:44:28.113Z,99910.19
2022-10-05T04:47:05.598Z,99946.66
2022-10-05T04:49:54.924Z,99711.91
2022-10-05T04:52:27.497Z,99942.47
2022-10-05T04:55:05.897Z,99972.28
2022-10-05T04:57:54.045Z,99759.66
2022-10-05T05:00:24.867Z,99738.97
2022-10-05T05:03:29.411Z,100036.53
2022-10-05T05:06:17.183Z,99988.75
2022-10-05T05:09:01.138Z,99965.94
2022-10-05T05:11:30.386Z,99906.19
2022-10-05T05:14:17.760Z,99946.66
2022-10-05T05:16:46.163Z,99846.06
2022-10-05T05:19:19.615Z,99978.06
2022-10-05T05:21:51.343Z,100009.97
2022-10-05T05:24:24.195Z,99987.22
2022-10-05T05:27:02.512Z,99983.78
2022-10-05T05:29:37.641Z,99873.34
2022-10-05T05:32:09.700Z,99835.50
2022-10-05T05:34:43.911Z,99960.88
2022-10-05T05:37:15.635Z,99927.91
2022-10-05T05:39:49.110Z,99538.44
2022-10-05T05:42:23.850Z,99614.91
2022-10-05T05:44:53.479Z,99968.50
2022-10-05T05:47:22.689Z,99899.44
2022-10-05T05:50:07.311Z,99840.44
2022-10-05T05:52:40.570Z,99632.59
2022-10-05T05:55:15.739Z,99702.81
2022-10-05T05:57:47.844Z,99858.94
2022-10-05T06:00:20.520Z,99746.91
2022-10-05T06:02:52.230Z,99775.91
2022-10-05T06:05:28.767Z,99858.88
2022-10-05T06:07:57.059Z,99722.19
2022-10-05T06:10:30.438Z,99667.88
2022-10-05T06:13:01.580Z,99922.44
2022-10-05T06:15:31.757Z,99726.63
2022-10-05T06:18:00.717Z,99951.59
2022-10-05T06:20:29.887Z,99849.50
2022-10-05T06:25:51.029Z,99893.91
2022-10-05T06:28:19.650Z,99988.09
2022-10-05T06:30:52.688Z,99968.78
2022-10-05T06:33:26.761Z,99971.41
2022-10-05T06:36:01.613Z,99957.81
2022-10-05T06:38:44.831Z,99977.47
2022-10-05T06:41:16.766Z,99954.75
2022-10-05T06:43:49.955Z,99943.19
2022-10-05T06:46:27.166Z,99964.81
2022-10-05T06:49:03.546Z,99967.41
2022-10-05T06:51:36.665Z,99960.19
2022-10-05T06:54:08.295Z,99966.25
2022-10-05T06:56:40.869Z,99958.38
2022-10-05T06:59:10.919Z,99924.50
2022-10-05T07:01:46.073Z,99925.25
2022-10-05T07:04:35.963Z,99936.25
2022-10-05T07:07:05.999Z,99916.28
2022-10-05T07:09:39.543Z,99910.25
2022-10-05T07:12:23.892Z,99918.50
2022-10-05T07:15:14.102Z,99956.38
2022-10-05T07:17:46.024Z,99963.28
2022-10-05T07:20:16.985Z,99900.13
2022-10-05T07:23:14.960Z,99961.16
2022-10-05T07:25:44.075Z,99923.19
2022-10-05T07:28:15.063Z,99905.16
2022-10-05T07:30:45.300Z,99961.47
2022-10-05T07:33:14.437Z,99973.13
2022-10-05T07:36:04.125Z,99948.91
2022-10-05T07:38:33.742Z,99968.47
2022-10-05T07:41:07.520Z,99942.56
2022-10-05T07:44:02.333Z,99991.84
2022-10-05T07:46:35.539Z,99974.38
2022-10-05T07:49:04.686Z,99932.34
2022-10-05T07:51:36.097Z,99971.66
2022-10-05T07:54:20.062Z,99981.03
2022-10-05T07:56:50.397Z,99966.25
2022-10-05T07:59:24.830Z,99976.41
2022-10-05T08:01:55.394Z,99982.53
2022-10-05T08:04:25.217Z,99989.31
2022-10-05T08:06:54.121Z,99992.78
2022-10-05T08:09:30.347Z,99967.66
2022-10-05T08:12:03.386Z,99982.97
2022-10-05T08:14:34.784Z,99950.78
2022-10-05T08:17:03.978Z,99989.56
2022-10-05T08:19:34.993Z,99997.47
2022-10-05T08:22:04.969Z,100000.00
2022-10-05T08:24:39.852Z,99952.44
2022-10-05T08:27:10.555Z,99963.72
2022-10-05T08:29:42.220Z,99991.09
2022-10-05T08:32:13.734Z,99959.13
2022-10-05T08:34:46.727Z,99759.38
2022-10-05T08:37:29.136Z,100007.22
2022-10-05T08:40:04.121Z,99886.13
2022-10-05T08:43:05.023Z,99975.84
2022-10-05T08:46:19.374Z,99971.78
2022-10-05T08:49:15.962Z,99983.75
2022-10-05T08:52:04.881Z,99996.03
2022-10-05T08:54:48.444Z,99958.41
2022-10-05T08:57:41.801Z,99975.25
2022-10-05T09:00:11.389Z,99966.94
2022-10-05T09:03:07.991Z,99942.34
2022-10-05T09:06:16.982Z,99944.63
2022-10-05T09:08:58.684Z,99867.91
2022-10-05T09:11:27.723Z,100006.69
2022-10-05T09:14:29.498Z,99841.31
2022-10-05T09:17:11.662Z,99908.19
2022-10-05T09:20:17.856Z,99983.81
2022-10-05T09:23:13.313Z,99963.34
2022-10-05T09:25:55.188Z,99933.22
2022-10-05T09:28:35.010Z,99843.44
2022-10-05T09:31:18.930Z,99969.69
2022-10-05T09:34:18.718Z,99876.75
2022-10-05T09:37:23.078Z,99969.31
2022-10-05T09:40:18.516Z,99931.66
2022-10-05T09:43:05.240Z,99870.59
2022-10-05T09:46:03.858Z,99962.69
2022-10-05T09:48:48.585Z,99972.28
2022-10-05T09:52:07.025Z,99949.16
2022-10-05T09:55:03.040Z,99924.13
2022-10-05T09:57:59.288Z,99963.72
2022-10-05T10:00:31.834Z,99945.81
2022-10-05T10:03:15.964Z,99883.03
2022-10-05T10:06:05.083Z,99944.47
2022-10-05T10:08:37.657Z,99862.28
2022-10-05T10:11:42.373Z,99937.16
2022-10-05T10:14:49.907Z,99877.28
2022-10-05T10:17:30.450Z,99949.13
2022-10-05T10:20:10.245Z,99940.16
2022-10-05T10:23:12.529Z,99926.78
2022-10-05T10:57:04.337Z,99915.00
2022-10-05T10:59:57.558Z,99920.94
2022-10-05T11:02:37.256Z,99922.28
2022-10-05T11:05:09.465Z,99904.16
2022-10-05T11:08:02.996Z,99923.81
2022-10-05T11:10:52.550Z,99782.25
2022-10-05T11:13:40.024Z,99905.94
2022-10-05T11:16:32.231Z,99897.47
2022-10-05T11:19:20.262Z,99876.47
2022-10-05T11:21:55.415Z,99896.31
2022-10-05T11:24:44.870Z,99879.16
2022-10-05T11:27:45.727Z,99896.81
2022-10-05T11:30:22.969Z,99876.31
2022-10-05T11:33:14.482Z,99831.31
2022-10-05T11:36:30.156Z,99867.31
2022-10-05T11:39:18.177Z,99841.53
2022-10-05T11:42:08.749Z,99852.09
2022-10-05T11:45:13.213Z,99819.44
2022-10-05T11:47:50.213Z,99838.19
2022-10-05T11:50:20.627Z,99838.28
2022-10-05T11:52:49.078Z,99812.41
2022-10-05T11:55:22.798Z,99818.78
2022-10-05T11:57:52.175Z,99813.59
2022-10-05T12:00:21.119Z,99806.78
2022-10-05T12:03:14.134Z,99800.84
2022-10-05T12:05:47.593Z,99758.56
2022-10-05T12:08:22.216Z,99790.13
2022-10-05T12:10:53.820Z,99785.66
2022-10-05T12:13:26.796Z,99781.34
2022-10-05T12:15:55.932Z,99768.94
2022-10-05T12:18:40.401Z,99776.28
2022-10-05T12:21:12.134Z,99715.44
2022-10-05T12:23:43.513Z,99769.81
2022-10-05T12:26:12.769Z,99766.53
2022-10-05T12:28:42.301Z,99755.66
2022-10-05T12:31:24.069Z,99747.84
2022-10-05T12:33:57.767Z,99743.94
2022-10-05T12:36:46.202Z,99750.28
2022-10-05T12:39:20.742Z,99696.41
2022-10-05T12:41:51.778Z,99745.03
2022-10-05T12:44:26.409Z,99730.81
2022-10-05T12:46:57.621Z,99686.88
2022-10-05T12:49:43.153Z,99715.78
2022-10-05T12:52:14.827Z,99687.81
2022-10-05T12:54:45.930Z,99713.38
2022-10-05T12:57:16.159Z,99697.06
2022-10-05T12:59:45.699Z,99704.50
2022-10-05T13:02:19.762Z,99709.84
2022-10-05T13:04:51.512Z,99658.81
2022-10-05T13:08:07.274Z,99579.50
2022-10-05T13:10:36.433Z,99695.81
2022-10-05T13:13:12.268Z,99704.50
2022-10-05T13:15:42.633Z,99683.25
2022-10-05T13:18:18.214Z,99693.94
2022-10-05T13:20:50.076Z,99639.59
2022-10-05T13:23:20.877Z,99683.63
2022-10-05T13:25:51.627Z,99716.63
2022-10-05T13:28:22.428Z,99688.22
2022-10-05T13:30:57.734Z,99602.75
2022-10-05T13:33:29.701Z,99620.59
2022-10-05T13:36:01.696Z,99683.03
2022-10-05T13:38:36.609Z,99602.75
2022-10-05T13:41:08.204Z,99657.50
2022-10-05T13:43:44.846Z,99687.44
2022-10-05T13:46:16.363Z,99670.38
2022-10-05T13:48:53.536Z,99596.16
2022-10-05T13:51:23.435Z,99449.25
2022-10-05T13:53:55.992Z,99596.44
2022-10-05T13:56:25.873Z,99581.19
2022-10-05T13:58:56.955Z,99561.94
2022-10-05T14:01:31.649Z,99466.97
2022-10-05T14:04:07.071Z,99605.97
2022-10-05T14:06:37.763Z,99617.56
2022-10-05T14:09:05.463Z,99435.78
2022-10-05T14:11:34.843Z,99430.44
2022-10-05T14:14:05.319Z,99632.47
2022-10-05T14:16:33.754Z,99344.91
2022-10-05T14:19:18.845Z,99465.56
2022-10-05T14:21:50.727Z,99415.22
2022-10-05T14:24:32.269Z,99494.75
2022-10-05T14:27:19.231Z,99461.06
2022-10-05T14:29:49.085Z,99490.19
2022-10-05T14:32:18.759Z,99493.66
2022-10-05T14:34:47.269Z,99715.91
2022-10-05T14:37:20.960Z,99572.53
2022-10-05T14:39:51.862Z,99692.44
2022-10-05T14:42:20.641Z,99452.84
2022-10-05T14:44:59.838Z,99626.84
2022-10-05T14:47:30.217Z,99372.00
2022-10-05T14:50:16.154Z,99251.88
2022-10-05T14:52:51.782Z,99439.94
2022-10-05T14:55:45.258Z,99720.25
2022-10-05T14:58:38.806Z,99654.38
2022-10-05T15:01:13.616Z,99604.66
2022-10-05T15:03:47.233Z,99563.09
2022-10-05T15:06:19.956Z,99283.53
2022-10-05T15:09:00.654Z,99522.97
2022-10-05T15:11:34.399Z,99519.75
2022-10-05T15:14:04.818Z,99374.63
2022-10-05T15:16:33.293Z,99450.69
2022-10-05T15:19:04.804Z,99651.31
2022-10-05T15:21:40.523Z,99425.84
2022-10-05T15:24:13.244Z,99363.78
2022-10-05T15:26:47.425Z,99411.09
2022-10-05T15:29:49.832Z,99661.13
2022-10-05T15:32:25.287Z,99572.69
2022-10-05T15:35:01.215Z,99672.13
2022-10-05T15:37:34.095Z,99713.13
2022-10-05T15:40:04.882Z,99639.41
2022-10-05T15:42:35.021Z,99462.00
2022-10-05T15:45:05.361Z,99372.19
2022-10-05T15:47:43.900Z,99679.69
2022-10-05T15:50:16.154Z,99621.38
2022-10-05T15:52:45.700Z,99530.63
2022-10-05T15:55:26.413Z,99427.59
2022-10-05T15:57:59.331Z,99751.97
2022-10-05T16:00:27.326Z,99513.53
2022-10-05T16:02:59.304Z,99694.13
2022-10-05T16:05:57.789Z,99649.00
2022-10-05T16:08:54.139Z,99710.38
2022-10-05T16:11:51.699Z,99687.97
2022-10-05T16:14:39.429Z,99723.94
2022-10-05T16:17:13.605Z,99605.44
2022-10-05T16:19:46.123Z,99541.69
2022-10-05T16:22:18.254Z,99657.47
2022-10-05T16:24:55.622Z,99272.22
2022-10-05T16:27:29.883Z,99598.66
2022-10-05T16:30:00.216Z,99689.75
2022-10-05T16:32:30.261Z,99581.00
2022-10-05T16:35:03.760Z,99679.31
2022-10-05T16:37:35.960Z,99705.31
2022-10-05T16:40:04.577Z,99542.47
2022-10-05T16:42:57.959Z,99604.31
2022-10-05T16:45:31.068Z,99511.75
2022-10-05T16:48:03.127Z,99646.06
2022-10-05T16:50:34.787Z,99825.41
2022-10-05T16:53:13.385Z,99653.63
2022-10-05T16:55:43.124Z,99742.47
2022-10-05T16:58:16.001Z,99749.44
2022-10-05T17:00:51.954Z,99777.09
2022-10-05T17:03:30.459Z,99713.28
2022-10-05T17:06:09.816Z,99644.41
2022-10-05T17:09:00.944Z,99711.38
2022-10-05T17:11:34.441Z,99512.31
2022-10-05T17:14:21.025Z,99389.53
2022-10-05T17:16:55.964Z,99796.03
2022-10-05T17:19:43.659Z,99835.91
2022-10-05T17:22:13.582Z,99572.84
2022-10-05T17:24:51.862Z,99658.31
2022-10-05T17:27:22.877Z,99456.50
2022-10-05T17:29:52.722Z,99776.63
2022-10-05T17:32:34.276Z,99610.41
2022-10-05T17:35:18.412Z,99805.19
2022-10-05T17:38:15.169Z,99874.41
2022-10-05T17:40:43.331Z,99554.50
2022-10-05T17:43:25.301Z,99582.97
2022-10-05T17:45:56.736Z,99919.69
2022-10-05T17:48:38.131Z,99782.09
2022-10-05T17:51:40.433Z,99395.59
2022-10-05T17:54:37.127Z,99769.16
2022-10-05T17:57:20.818Z,99788.25
2022-10-05T17:59:58.186Z,99610.69
2022-10-05T18:02:42.897Z,99882.56
2022-10-05T18:05:29.002Z,99950.34
2022-10-05T18:08:21.554Z,99933.03
2022-10-05T18:11:08.323Z,99625.81
2022-10-05T18:13:36.714Z,99818.66
2022-10-05T18:16:04.758Z,99784.19
2022-10-05T18:18:55.969Z,99721.19
2022-10-05T18:21:35.889Z,99876.38
2022-10-05T18:24:36.503Z,99956.06
2022-10-05T18:27:31.932Z,99967.75
2022-10-05T18:30:15.045Z,99566.28
2022-10-05T18:33:21.107Z,99678.03
2022-10-05T18:35:59.790Z,99942.56
2022-10-05T18:38:35.738Z,99849.31
2022-10-05T18:41:06.423Z,99502.56
2022-10-05T18:43:37.143Z,99680.75
2022-10-05T18:46:15.456Z,100038.69
2022-10-05T18:48:48.352Z,99892.66
2022-10-05T18:51:21.032Z,99873.63
2022-10-05T18:54:00.371Z,99651.28
2022-10-05T18:56:31.211Z,99897.63
2022-10-05T18:59:06.343Z,99518.31
2022-10-05T19:01:52.278Z,99893.34
2022-10-05T19:04:24.778Z,99976.28
2022-10-05T19:06:59.614Z,99928.88
2022-10-05T19:09:39.704Z,99487.16
2022-10-05T19:12:49.633Z,99985.78
2022-10-05T19:15:44.218Z,99981.34
2022-10-05T19:18:33.301Z,100015.09
2022-10-05T19:21:05.443Z,99837.31
2022-10-05T19:23:44.663Z,99886.66
2022-10-05T19:26:15.611Z,99849.38
2022-10-05T19:28:50.388Z,99748.09
2022-10-05T19:31:27.985Z,99710.72
2022-10-05T19:34:03.003Z,99922.34
2022-10-05T19:36:36.569Z,99850.66
2022-10-05T19:39:09.024Z,99734.41
2022-10-05T19:41:52.098Z,100017.03
2022-10-05T19:44:25.153Z,99773.41
2022-10-05T19:47:00.588Z,99915.59
2022-10-05T19:49:45.259Z,99667.94
2022-10-05T19:55:13.034Z,99942.59
2022-10-05T22:13:26.777Z,100118.34
2022-10-05T22:45:18.096Z,99918.81
2022-10-05T22:48:19.887Z,100077.09
2022-10-05T22:51:41.045Z,100137.34
2022-10-05T22:54:57.684Z,99841.78
2022-10-05T22:57:38.547Z,100276.09
2022-10-05T23:00:07.920Z,100207.38
2022-10-05T23:02:37.850Z,100191.22
2022-10-05T23:05:06.820Z,100127.91
2022-10-05T23:11:20.855Z,100092.72
2022-10-05T23:17:39.857Z,100282.22
2022-10-05T23:21:24.527Z,100292.19
2022-10-05T23:27:55.119Z,100398.38
2022-10-05T23:31:08.115Z,100025.44
2022-10-05T23:34:03.885Z,100021.50
2022-10-05T23:41:29.047Z,100464.34
2022-10-05T23:44:38.093Z,99998.47
2022-10-05T23:54:20.070Z,100249.41
